sensor_id;sensor_type;location;lat;lon;timestamp;P1;durP1;ratioP1;P2;durP2;ratioP2
19209;SDS011;9738;51.654;14.238;2022-08-25T00:01:19;4.97;;;4.13;;
19209;SDS011;9738;51.654;14.238;2022-08-25T00:03:47;4.73;;;4.20;;
19209;SDS011;9738;51.654;14.238;2022-08-25T00:06:14;4.83;;;4.17;;
19209;SDS011;9738;51.654;14.238;2022-08-25T00:08:41;3.73;;;3.37;;
19209;SDS011;9738;51.654;14.238;2022-08-25T00:11:09;5.10;;;3.67;;
19209;SDS011;9738;51.654;14.238;2022-08-25T00:13:42;4.67;;;4.03;;
19209;SDS011;9738;51.654;14.238;2022-08-25T00:16:10;4.43;;;4.00;;
19209;SDS011;9738;51.654;14.238;2022-08-25T00:18:38;5.53;;;4.00;;
19209;SDS011;9738;51.654;14.238;2022-08-25T00:21:06;4.30;;;3.77;;
19209;SDS011;9738;51.654;14.238;2022-08-25T00:23:33;4.10;;;3.37;;
19209;SDS011;9738;51.654;14.238;2022-08-25T00:26:00;4.43;;;3.60;;
19209;SDS011;9738;51.654;14.238;2022-08-25T00:28:27;4.33;;;3.93;;
19209;SDS011;9738;51.654;14.238;2022-08-25T00:30:54;4.90;;;4.03;;
19209;SDS011;9738;51.654;14.238;2022-08-25T00:33:20;4.40;;;3.93;;
19209;SDS011;9738;51.654;14.238;2022-08-25T00:35:47;4.17;;;3.73;;
19209;SDS011;9738;51.654;14.238;2022-08-25T00:38:12;5.07;;;3.70;;
19209;SDS011;9738;51.654;14.238;2022-08-25T00:40:39;3.60;;;3.30;;
19209;SDS011;9738;51.654;14.238;2022-08-25T00:43:06;4.80;;;4.33;;
19209;SDS011;9738;51.654;14.238;2022-08-25T00:45:33;4.83;;;3.90;;
19209;SDS011;9738;51.654;14.238;2022-08-25T00:48:00;5.10;;;3.53;;
19209;SDS011;9738;51.654;14.238;2022-08-25T00:50:28;5.00;;;4.27;;
19209;SDS011;9738;51.654;14.238;2022-08-25T00:52:57;3.97;;;3.57;;
19209;SDS011;9738;51.654;14.238;2022-08-25T00:55:30;4.13;;;3.57;;
19209;SDS011;9738;51.654;14.238;2022-08-25T00:58:08;4.43;;;3.27;;
19209;SDS011;9738;51.654;14.238;2022-08-25T01:00:41;3.67;;;3.20;;
19209;SDS011;9738;51.654;14.238;2022-08-25T01:03:12;3.97;;;3.57;;
19209;SDS011;9738;51.654;14.238;2022-08-25T01:05:38;4.03;;;3.57;;
19209;SDS011;9738;51.654;14.238;2022-08-25T01:08:06;3.93;;;3.57;;
19209;SDS011;9738;51.654;14.238;2022-08-25T01:10:35;3.80;;;3.40;;
19209;SDS011;9738;51.654;14.238;2022-08-25T01:13:07;3.40;;;3.10;;
19209;SDS011;9738;51.654;14.238;2022-08-25T01:15:38;3.13;;;2.83;;
19209;SDS011;9738;51.654;14.238;2022-08-25T01:18:04;5.90;;;3.30;;
19209;SDS011;9738;51.654;14.238;2022-08-25T01:20:30;3.37;;;3.07;;
19209;SDS011;9738;51.654;14.238;2022-08-25T01:22:57;3.83;;;3.50;;
19209;SDS011;9738;51.654;14.238;2022-08-25T01:25:40;3.43;;;3.13;;
19209;SDS011;9738;51.654;14.238;2022-08-25T01:28:08;3.40;;;3.03;;
19209;SDS011;9738;51.654;14.238;2022-08-25T01:30:34;4.53;;;3.80;;
19209;SDS011;9738;51.654;14.238;2022-08-25T01:33:02;4.00;;;3.60;;
19209;SDS011;9738;51.654;14.238;2022-08-25T01:35:30;4.47;;;3.83;;
19209;SDS011;9738;51.654;14.238;2022-08-25T01:37:56;4.00;;;3.40;;
19209;SDS011;9738;51.654;14.238;2022-08-25T01:40:21;5.07;;;3.93;;
19209;SDS011;9738;51.654;14.238;2022-08-25T01:42:52;3.57;;;3.27;;
19209;SDS011;9738;51.654;14.238;2022-08-25T01:45:31;4.03;;;3.63;;
19209;SDS011;9738;51.654;14.238;2022-08-25T01:47:58;4.67;;;3.43;;
19209;SDS011;9738;51.654;14.238;2022-08-25T01:50:24;4.10;;;3.80;;
19209;SDS011;9738;51.654;14.238;2022-08-25T01:52:55;3.73;;;3.43;;
19209;SDS011;9738;51.654;14.238;2022-08-25T01:55:25;3.30;;;3.00;;
19209;SDS011;9738;51.654;14.238;2022-08-25T01:57:51;4.20;;;3.80;;
19209;SDS011;9738;51.654;14.238;2022-08-25T02:00:17;4.50;;;3.77;;
19209;SDS011;9738;51.654;14.238;2022-08-25T02:02:45;4.17;;;3.63;;
19209;SDS011;9738;51.654;14.238;2022-08-25T02:05:12;4.40;;;3.57;;
19209;SDS011;9738;51.654;14.238;2022-08-25T02:07:41;3.57;;;3.23;;
19209;SDS011;9738;51.654;14.238;2022-08-25T02:10:09;4.30;;;3.33;;
19209;SDS011;9738;51.654;14.238;2022-08-25T02:12:37;3.73;;;3.10;;
19209;SDS011;9738;51.654;14.238;2022-08-25T02:15:03;3.17;;;2.87;;
19209;SDS011;9738;51.654;14.238;2022-08-25T02:17:32;4.30;;;3.73;;
19209;SDS011;9738;51.654;14.238;2022-08-25T02:19:59;4.23;;;3.33;;
19209;SDS011;9738;51.654;14.238;2022-08-25T02:22:25;3.30;;;3.00;;
19209;SDS011;9738;51.654;14.238;2022-08-25T02:24:51;3.50;;;3.00;;
19209;SDS011;9738;51.654;14.238;2022-08-25T02:27:17;4.00;;;3.60;;
19209;SDS011;9738;51.654;14.238;2022-08-25T02:29:43;3.50;;;3.20;;
19209;SDS011;9738;51.654;14.238;2022-08-25T02:32:09;4.87;;;3.97;;
19209;SDS011;9738;51.654;14.238;2022-08-25T02:34:35;5.03;;;4.53;;
19209;SDS011;9738;51.654;14.238;2022-08-25T02:37:02;3.93;;;3.47;;
19209;SDS011;9738;51.654;14.238;2022-08-25T02:39:28;3.57;;;3.00;;
19209;SDS011;9738;51.654;14.238;2022-08-25T02:41:54;4.23;;;3.80;;
19209;SDS011;9738;51.654;14.238;2022-08-25T02:44:20;4.00;;;3.60;;
19209;SDS011;9738;51.654;14.238;2022-08-25T02:46:46;3.83;;;3.43;;
19209;SDS011;9738;51.654;14.238;2022-08-25T02:49:12;3.87;;;3.47;;
19209;SDS011;9738;51.654;14.238;2022-08-25T02:51:38;3.67;;;2.73;;
19209;SDS011;9738;51.654;14.238;2022-08-25T02:54:04;7.77;;;3.90;;
19209;SDS011;9738;51.654;14.238;2022-08-25T02:56:31;4.70;;;3.80;;
19209;SDS011;9738;51.654;14.238;2022-08-25T02:58:58;4.10;;;3.30;;
19209;SDS011;9738;51.654;14.238;2022-08-25T03:01:25;3.87;;;3.20;;
19209;SDS011;9738;51.654;14.238;2022-08-25T03:03:51;3.70;;;3.20;;
19209;SDS011;9738;51.654;14.238;2022-08-25T03:06:17;3.40;;;3.10;;
19209;SDS011;9738;51.654;14.238;2022-08-25T03:08:48;3.20;;;2.90;;
19209;SDS011;9738;51.654;14.238;2022-08-25T03:11:14;3.30;;;3.00;;
19209;SDS011;9738;51.654;14.238;2022-08-25T03:13:39;3.07;;;2.47;;
19209;SDS011;9738;51.654;14.238;2022-08-25T03:16:06;3.90;;;3.33;;
19209;SDS011;9738;51.654;14.238;2022-08-25T03:18:33;3.40;;;2.97;;
19209;SDS011;9738;51.654;14.238;2022-08-25T03:20:59;3.57;;;3.20;;
19209;SDS011;9738;51.654;14.238;2022-08-25T03:23:25;3.63;;;3.07;;
19209;SDS011;9738;51.654;14.238;2022-08-25T03:25:54;3.97;;;3.17;;
19209;SDS011;9738;51.654;14.238;2022-08-25T03:28:39;3.13;;;2.83;;
19209;SDS011;9738;51.654;14.238;2022-08-25T03:31:06;2.53;;;2.33;;
19209;SDS011;9738;51.654;14.238;2022-08-25T03:33:33;4.20;;;3.47;;
19209;SDS011;9738;51.654;14.238;2022-08-25T03:35:59;5.43;;;3.67;;
19209;SDS011;9738;51.654;14.238;2022-08-25T03:38:26;3.90;;;3.37;;
19209;SDS011;9738;51.654;14.238;2022-08-25T03:40:52;4.50;;;4.10;;
19209;SDS011;9738;51.654;14.238;2022-08-25T03:43:20;5.03;;;3.33;;
19209;SDS011;9738;51.654;14.238;2022-08-25T03:45:46;4.80;;;3.30;;
19209;SDS011;9738;51.654;14.238;2022-08-25T03:48:12;4.50;;;3.57;;
19209;SDS011;9738;51.654;14.238;2022-08-25T03:50:44;4.43;;;3.60;;
19209;SDS011;9738;51.654;14.238;2022-08-25T03:53:11;4.80;;;3.90;;
19209;SDS011;9738;51.654;14.238;2022-08-25T03:55:37;5.00;;;4.00;;
19209;SDS011;9738;51.654;14.238;2022-08-25T03:58:05;4.63;;;3.97;;
19209;SDS011;9738;51.654;14.238;2022-08-25T04:00:31;5.37;;;3.17;;
19209;SDS011;9738;51.654;14.238;2022-08-25T04:02:57;4.20;;;3.23;;
19209;SDS011;9738;51.654;14.238;2022-08-25T04:05:23;5.43;;;4.00;;
19209;SDS011;9738;51.654;14.238;2022-08-25T04:07:49;5.70;;;4.13;;
19209;SDS011;9738;51.654;14.238;2022-08-25T04:10:14;5.17;;;3.50;;
19209;SDS011;9738;51.654;14.238;2022-08-25T04:12:41;4.73;;;3.60;;
19209;SDS011;9738;51.654;14.238;2022-08-25T04:15:07;4.47;;;4.07;;
19209;SDS011;9738;51.654;14.238;2022-08-25T04:17:36;5.03;;;4.07;;
19209;SDS011;9738;51.654;14.238;2022-08-25T04:20:05;5.20;;;3.77;;
19209;SDS011;9738;51.654;14.238;2022-08-25T04:22:33;6.27;;;4.07;;
19209;SDS011;9738;51.654;14.238;2022-08-25T04:24:59;5.23;;;4.27;;
19209;SDS011;9738;51.654;14.238;2022-08-25T04:27:25;5.17;;;4.23;;
19209;SDS011;9738;51.654;14.238;2022-08-25T04:29:51;6.93;;;4.87;;
19209;SDS011;9738;51.654;14.238;2022-08-25T04:32:17;6.33;;;4.40;;
19209;SDS011;9738;51.654;14.238;2022-08-25T04:34:43;5.33;;;4.03;;
19209;SDS011;9738;51.654;14.238;2022-08-25T04:37:09;4.80;;;4.27;;
19209;SDS011;9738;51.654;14.238;2022-08-25T04:39:35;4.67;;;3.43;;
19209;SDS011;9738;51.654;14.238;2022-08-25T04:42:01;4.00;;;3.60;;
19209;SDS011;9738;51.654;14.238;2022-08-25T04:44:27;5.87;;;4.57;;
19209;SDS011;9738;51.654;14.238;2022-08-25T04:46:54;5.07;;;4.50;;
19209;SDS011;9738;51.654;14.238;2022-08-25T04:49:21;7.17;;;4.67;;
19209;SDS011;9738;51.654;14.238;2022-08-25T04:51:47;5.97;;;4.70;;
19209;SDS011;9738;51.654;14.238;2022-08-25T04:54:13;5.00;;;4.20;;
19209;SDS011;9738;51.654;14.238;2022-08-25T04:56:42;6.03;;;4.97;;
19209;SDS011;9738;51.654;14.238;2022-08-25T04:59:10;4.37;;;3.63;;
19209;SDS011;9738;51.654;14.238;2022-08-25T05:01:38;4.97;;;3.77;;
19209;SDS011;9738;51.654;14.238;2022-08-25T05:04:06;4.67;;;4.20;;
19209;SDS011;9738;51.654;14.238;2022-08-25T05:06:32;5.83;;;5.00;;
19209;SDS011;9738;51.654;14.238;2022-08-25T05:08:59;6.53;;;5.83;;
19209;SDS011;9738;51.654;14.238;2022-08-25T05:11:26;6.60;;;5.50;;
19209;SDS011;9738;51.654;14.238;2022-08-25T05:13:53;6.67;;;5.50;;
19209;SDS011;9738;51.654;14.238;2022-08-25T05:16:21;14.13;;;6.30;;
19209;SDS011;9738;51.654;14.238;2022-08-25T05:18:49;6.17;;;4.77;;
19209;SDS011;9738;51.654;14.238;2022-08-25T05:21:17;7.80;;;5.80;;
19209;SDS011;9738;51.654;14.238;2022-08-25T05:23:45;7.87;;;5.13;;
19209;SDS011;9738;51.654;14.238;2022-08-25T05:26:14;7.03;;;5.83;;
19209;SDS011;9738;51.654;14.238;2022-08-25T05:28:42;8.37;;;5.70;;
19209;SDS011;9738;51.654;14.238;2022-08-25T05:31:09;8.23;;;6.30;;
19209;SDS011;9738;51.654;14.238;2022-08-25T05:33:38;6.00;;;5.27;;
19209;SDS011;9738;51.654;14.238;2022-08-25T05:36:04;8.67;;;5.80;;
19209;SDS011;9738;51.654;14.238;2022-08-25T05:38:31;7.73;;;5.77;;
19209;SDS011;9738;51.654;14.238;2022-08-25T05:41:03;9.77;;;6.23;;
19209;SDS011;9738;51.654;14.238;2022-08-25T05:43:31;8.60;;;6.60;;
19209;SDS011;9738;51.654;14.238;2022-08-25T05:45:58;9.70;;;7.10;;
19209;SDS011;9738;51.654;14.238;2022-08-25T05:48:25;9.57;;;7.03;;
19209;SDS011;9738;51.654;14.238;2022-08-25T05:50:55;7.10;;;5.80;;
19209;SDS011;9738;51.654;14.238;2022-08-25T05:53:24;7.83;;;5.97;;
19209;SDS011;9738;51.654;14.238;2022-08-25T05:55:51;10.13;;;6.37;;
19209;SDS011;9738;51.654;14.238;2022-08-25T05:58:18;10.10;;;5.90;;
19209;SDS011;9738;51.654;14.238;2022-08-25T06:00:45;6.30;;;5.13;;
19209;SDS011;9738;51.654;14.238;2022-08-25T06:03:11;9.30;;;6.13;;
19209;SDS011;9738;51.654;14.238;2022-08-25T06:05:37;13.47;;;6.73;;
19209;SDS011;9738;51.654;14.238;2022-08-25T06:08:04;7.23;;;6.37;;
19209;SDS011;9738;51.654;14.238;2022-08-25T06:10:29;6.90;;;5.50;;
19209;SDS011;9738;51.654;14.238;2022-08-25T06:12:55;9.93;;;6.20;;
19209;SDS011;9738;51.654;14.238;2022-08-25T06:15:22;8.07;;;5.83;;
19209;SDS011;9738;51.654;14.238;2022-08-25T06:17:49;7.93;;;6.07;;
19209;SDS011;9738;51.654;14.238;2022-08-25T06:20:23;7.33;;;5.97;;
19209;SDS011;9738;51.654;14.238;2022-08-25T06:22:51;7.07;;;6.37;;
19209;SDS011;9738;51.654;14.238;2022-08-25T06:25:18;7.27;;;5.63;;
19209;SDS011;9738;51.654;14.238;2022-08-25T06:27:46;7.47;;;5.67;;
19209;SDS011;9738;51.654;14.238;2022-08-25T06:30:15;9.33;;;7.23;;
19209;SDS011;9738;51.654;14.238;2022-08-25T06:32:43;8.47;;;6.40;;
19209;SDS011;9738;51.654;14.238;2022-08-25T06:35:11;10.17;;;7.00;;
19209;SDS011;9738;51.654;14.238;2022-08-25T06:37:39;8.00;;;7.00;;
19209;SDS011;9738;51.654;14.238;2022-08-25T06:40:07;9.27;;;6.03;;
19209;SDS011;9738;51.654;14.238;2022-08-25T06:42:35;8.60;;;6.63;;
19209;SDS011;9738;51.654;14.238;2022-08-25T06:45:03;8.07;;;6.50;;
19209;SDS011;9738;51.654;14.238;2022-08-25T06:47:29;8.10;;;6.17;;
19209;SDS011;9738;51.654;14.238;2022-08-25T06:49:55;9.13;;;6.47;;
19209;SDS011;9738;51.654;14.238;2022-08-25T06:52:21;10.33;;;7.20;;
19209;SDS011;9738;51.654;14.238;2022-08-25T06:54:47;8.53;;;6.73;;
19209;SDS011;9738;51.654;14.238;2022-08-25T06:57:13;9.13;;;6.93;;
19209;SDS011;9738;51.654;14.238;2022-08-25T06:59:39;8.63;;;6.60;;
19209;SDS011;9738;51.654;14.238;2022-08-25T07:02:05;8.50;;;5.93;;
19209;SDS011;9738;51.654;14.238;2022-08-25T07:04:32;8.60;;;6.43;;
19209;SDS011;9738;51.654;14.238;2022-08-25T07:06:59;10.43;;;6.77;;
19209;SDS011;9738;51.654;14.238;2022-08-25T07:09:26;7.87;;;6.13;;
19209;SDS011;9738;51.654;14.238;2022-08-25T07:11:52;8.80;;;6.83;;
19209;SDS011;9738;51.654;14.238;2022-08-25T07:14:19;8.30;;;6.83;;
19209;SDS011;9738;51.654;14.238;2022-08-25T07:16:45;8.07;;;5.67;;
19209;SDS011;9738;51.654;14.238;2022-08-25T07:19:12;7.27;;;6.47;;
19209;SDS011;9738;51.654;14.238;2022-08-25T07:21:39;8.03;;;6.03;;
19209;SDS011;9738;51.654;14.238;2022-08-25T07:24:06;7.77;;;5.80;;
19209;SDS011;9738;51.654;14.238;2022-08-25T07:26:34;7.67;;;6.00;;
19209;SDS011;9738;51.654;14.238;2022-08-25T07:29:06;10.50;;;7.07;;
19209;SDS011;9738;51.654;14.238;2022-08-25T07:31:34;7.83;;;5.83;;
19209;SDS011;9738;51.654;14.238;2022-08-25T07:34:00;7.63;;;6.03;;
19209;SDS011;9738;51.654;14.238;2022-08-25T07:36:45;9.45;;;5.68;;
19209;SDS011;9738;51.654;14.238;2022-08-25T07:39:11;8.30;;;6.50;;
19209;SDS011;9738;51.654;14.238;2022-08-25T07:41:38;8.30;;;6.45;;
19209;SDS011;9738;51.654;14.238;2022-08-25T07:44:07;7.95;;;5.60;;
19209;SDS011;9738;51.654;14.238;2022-08-25T07:46:34;6.75;;;5.65;;
19209;SDS011;9738;51.654;14.238;2022-08-25T07:49:00;11.32;;;7.68;;
19209;SDS011;9738;51.654;14.238;2022-08-25T07:51:27;10.73;;;7.22;;
19209;SDS011;9738;51.654;14.238;2022-08-25T07:53:52;9.25;;;6.43;;
19209;SDS011;9738;51.654;14.238;2022-08-25T07:56:18;7.68;;;6.32;;
19209;SDS011;9738;51.654;14.238;2022-08-25T07:58:45;8.85;;;6.75;;
19209;SDS011;9738;51.654;14.238;2022-08-25T08:01:13;7.82;;;6.00;;
19209;SDS011;9738;51.654;14.238;2022-08-25T08:03:39;7.53;;;6.32;;
19209;SDS011;9738;51.654;14.238;2022-08-25T08:06:08;11.70;;;6.07;;
19209;SDS011;9738;51.654;14.238;2022-08-25T08:08:36;6.70;;;6.00;;
19209;SDS011;9738;51.654;14.238;2022-08-25T08:11:03;7.53;;;5.47;;
19209;SDS011;9738;51.654;14.238;2022-08-25T08:13:29;7.13;;;5.13;;
19209;SDS011;9738;51.654;14.238;2022-08-25T08:15:57;7.93;;;5.68;;
19209;SDS011;9738;51.654;14.238;2022-08-25T08:18:23;9.70;;;5.70;;
19209;SDS011;9738;51.654;14.238;2022-08-25T08:20:49;6.78;;;5.65;;
19209;SDS011;9738;51.654;14.238;2022-08-25T08:23:15;8.23;;;5.80;;
19209;SDS011;9738;51.654;14.238;2022-08-25T08:25:41;8.43;;;5.32;;
19209;SDS011;9738;51.654;14.238;2022-08-25T08:28:08;6.93;;;5.13;;
19209;SDS011;9738;51.654;14.238;2022-08-25T08:30:35;6.22;;;5.25;;
19209;SDS011;9738;51.654;14.238;2022-08-25T08:33:01;6.93;;;5.07;;
19209;SDS011;9738;51.654;14.238;2022-08-25T08:35:28;7.22;;;4.95;;
19209;SDS011;9738;51.654;14.238;2022-08-25T08:37:54;6.22;;;4.40;;
19209;SDS011;9738;51.654;14.238;2022-08-25T08:40:19;4.88;;;4.38;;
19209;SDS011;9738;51.654;14.238;2022-08-25T08:42:49;7.45;;;4.97;;
19209;SDS011;9738;51.654;14.238;2022-08-25T08:45:28;8.90;;;5.28;;
19209;SDS011;9738;51.654;14.238;2022-08-25T08:48:02;7.13;;;5.00;;
19209;SDS011;9738;51.654;14.238;2022-08-25T08:51:06;8.88;;;5.10;;
19209;SDS011;9738;51.654;14.238;2022-08-25T08:53:44;7.00;;;4.97;;
19209;SDS011;9738;51.654;14.238;2022-08-25T08:56:15;6.22;;;4.93;;
19209;SDS011;9738;51.654;14.238;2022-08-25T08:58:58;6.88;;;5.30;;
19209;SDS011;9738;51.654;14.238;2022-08-25T09:01:30;5.07;;;4.57;;
19209;SDS011;9738;51.654;14.238;2022-08-25T09:06:44;7.97;;;4.88;;
19209;SDS011;9738;51.654;14.238;2022-08-25T09:09:19;7.40;;;4.85;;
19209;SDS011;9738;51.654;14.238;2022-08-25T09:26:20;6.78;;;5.43;;
19209;SDS011;9738;51.654;14.238;2022-08-25T09:31:35;5.18;;;4.68;;
19209;SDS011;9738;51.654;14.238;2022-08-25T09:34:04;6.10;;;5.05;;
19209;SDS011;9738;51.654;14.238;2022-08-25T09:36:36;6.07;;;5.32;;
19209;SDS011;9738;51.654;14.238;2022-08-25T09:39:02;7.18;;;4.43;;
19209;SDS011;9738;51.654;14.238;2022-08-25T09:41:48;4.80;;;4.28;;
19209;SDS011;9738;51.654;14.238;2022-08-25T09:44:30;7.75;;;4.18;;
19209;SDS011;9738;51.654;14.238;2022-08-25T09:47:05;4.75;;;3.90;;
19209;SDS011;9738;51.654;14.238;2022-08-25T09:49:41;5.97;;;4.50;;
19209;SDS011;9738;51.654;14.238;2022-08-25T09:55:14;4.85;;;3.50;;
19209;SDS011;9738;51.654;14.238;2022-08-25T09:57:49;4.43;;;3.65;;
19209;SDS011;9738;51.654;14.238;2022-08-25T10:00:19;4.97;;;4.13;;
19209;SDS011;9738;51.654;14.238;2022-08-25T10:03:02;6.03;;;4.47;;
19209;SDS011;9738;51.654;14.238;2022-08-25T10:05:46;9.80;;;4.72;;
19209;SDS011;9738;51.654;14.238;2022-08-25T10:08:29;5.82;;;4.88;;
19209;SDS011;9738;51.654;14.238;2022-08-25T10:11:04;8.23;;;4.40;;
19209;SDS011;9738;51.654;14.238;2022-08-25T10:13:34;6.13;;;4.88;;
19209;SDS011;9738;51.654;14.238;2022-08-25T10:16:08;6.93;;;4.35;;
19209;SDS011;9738;51.654;14.238;2022-08-25T10:21:35;4.63;;;3.95;;
19209;SDS011;9738;51.654;14.238;2022-08-25T10:24:03;5.47;;;4.40;;
19209;SDS011;9738;51.654;14.238;2022-08-25T10:29:40;6.57;;;4.55;;
19209;SDS011;9738;51.654;14.238;2022-08-25T10:34:58;5.93;;;4.28;;
19209;SDS011;9738;51.654;14.238;2022-08-25T10:37:35;9.10;;;4.05;;
19209;SDS011;9738;51.654;14.238;2022-08-25T10:40:20;7.18;;;3.95;;
19209;SDS011;9738;51.654;14.238;2022-08-25T10:42:56;4.38;;;3.83;;
19209;SDS011;9738;51.654;14.238;2022-08-25T10:45:35;6.10;;;3.58;;
19209;SDS011;9738;51.654;14.238;2022-08-25T10:56:57;7.80;;;3.75;;
19209;SDS011;9738;51.654;14.238;2022-08-25T10:59:49;6.55;;;4.10;;
19209;SDS011;9738;51.654;14.238;2022-08-25T11:05:31;5.40;;;3.97;;
19209;SDS011;9738;51.654;14.238;2022-08-25T11:11:05;8.98;;;4.30;;
19209;SDS011;9738;51.654;14.238;2022-08-25T11:16:28;6.60;;;4.25;;
19209;SDS011;9738;51.654;14.238;2022-08-25T11:19:04;5.32;;;4.80;;
19209;SDS011;9738;51.654;14.238;2022-08-25T11:30:48;8.32;;;5.25;;
19209;SDS011;9738;51.654;14.238;2022-08-25T11:33:18;7.28;;;5.20;;
19209;SDS011;9738;51.654;14.238;2022-08-25T11:35:48;6.22;;;5.05;;
19209;SDS011;9738;51.654;14.238;2022-08-25T11:49:43;11.05;;;5.65;;
19209;SDS011;9738;51.654;14.238;2022-08-25T11:57:37;9.45;;;5.85;;
19209;SDS011;9738;51.654;14.238;2022-08-25T12:00:07;10.52;;;5.15;;
19209;SDS011;9738;51.654;14.238;2022-08-25T12:08:01;6.55;;;4.82;;
19209;SDS011;9738;51.654;14.238;2022-08-25T12:11:01;6.05;;;4.57;;
19209;SDS011;9738;51.654;14.238;2022-08-25T12:13:46;6.03;;;3.97;;
19209;SDS011;9738;51.654;14.238;2022-08-25T12:16:30;10.40;;;4.55;;
19209;SDS011;9738;51.654;14.238;2022-08-25T12:19:21;5.40;;;4.07;;
19209;SDS011;9738;51.654;14.238;2022-08-25T12:22:37;7.90;;;4.35;;
19209;SDS011;9738;51.654;14.238;2022-08-25T12:27:28;6.65;;;4.05;;
19209;SDS011;9738;51.654;14.238;2022-08-25T12:35:56;7.63;;;4.40;;
19209;SDS011;9738;51.654;14.238;2022-08-25T12:38:32;6.55;;;4.07;;
19209;SDS011;9738;51.654;14.238;2022-08-25T12:41:07;6.28;;;3.80;;
19209;SDS011;9738;51.654;14.238;2022-08-25T12:43:36;5.10;;;4.00;;
19209;SDS011;9738;51.654;14.238;2022-08-25T12:48:53;4.72;;;3.92;;
19209;SDS011;9738;51.654;14.238;2022-08-25T12:51:20;5.88;;;4.28;;
19209;SDS011;9738;51.654;14.238;2022-08-25T12:53:50;5.50;;;3.42;;
19209;SDS011;9738;51.654;14.238;2022-08-25T13:01:34;5.45;;;3.83;;
19209;SDS011;9738;51.654;14.238;2022-08-25T13:04:08;4.68;;;3.83;;
19209;SDS011;9738;51.654;14.238;2022-08-25T13:06:54;6.25;;;4.53;;
19209;SDS011;9738;51.654;14.238;2022-08-25T13:12:25;7.28;;;4.35;;
19209;SDS011;9738;51.654;14.238;2022-08-25T13:14:58;5.72;;;3.63;;
19209;SDS011;9738;51.654;14.238;2022-08-25T13:17:27;5.78;;;3.38;;
19209;SDS011;9738;51.654;14.238;2022-08-25T13:20:11;7.53;;;4.20;;
19209;SDS011;9738;51.654;14.238;2022-08-25T13:22:48;5.60;;;4.50;;
19209;SDS011;9738;51.654;14.238;2022-08-25T13:25:17;7.55;;;4.25;;
19209;SDS011;9738;51.654;14.238;2022-08-25T13:27:49;4.32;;;3.67;;
19209;SDS011;9738;51.654;14.238;2022-08-25T13:30:21;9.95;;;4.93;;
19209;SDS011;9738;51.654;14.238;2022-08-25T13:32:56;5.25;;;4.05;;
19209;SDS011;9738;51.654;14.238;2022-08-25T13:35:24;5.10;;;3.58;;
19209;SDS011;9738;51.654;14.238;2022-08-25T13:37:52;6.40;;;3.67;;
19209;SDS011;9738;51.654;14.238;2022-08-25T13:40:26;7.65;;;3.63;;
19209;SDS011;9738;51.654;14.238;2022-08-25T13:43:12;7.38;;;3.78;;
19209;SDS011;9738;51.654;14.238;2022-08-25T13:45:41;5.80;;;3.88;;
19209;SDS011;9738;51.654;14.238;2022-08-25T13:48:09;4.28;;;3.38;;
19209;SDS011;9738;51.654;14.238;2022-08-25T13:50:38;9.70;;;3.90;;
19209;SDS011;9738;51.654;14.238;2022-08-25T13:55:49;5.80;;;4.32;;
19209;SDS011;9738;51.654;14.238;2022-08-25T13:58:19;5.47;;;3.92;;
19209;SDS011;9738;51.654;14.238;2022-08-25T14:00:48;4.72;;;3.72;;
19209;SDS011;9738;51.654;14.238;2022-08-25T14:03:35;5.13;;;3.22;;
19209;SDS011;9738;51.654;14.238;2022-08-25T14:06:08;5.75;;;3.30;;
19209;SDS011;9738;51.654;14.238;2022-08-25T14:08:42;3.92;;;3.60;;
19209;SDS011;9738;51.654;14.238;2022-08-25T14:11:15;9.93;;;3.55;;
19209;SDS011;9738;51.654;14.238;2022-08-25T14:16:52;4.35;;;3.70;;
19209;SDS011;9738;51.654;14.238;2022-08-25T14:19:24;12.90;;;3.88;;
19209;SDS011;9738;51.654;14.238;2022-08-25T14:21:50;4.75;;;3.00;;
19209;SDS011;9738;51.654;14.238;2022-08-25T14:24:19;6.05;;;3.15;;
19209;SDS011;9738;51.654;14.238;2022-08-25T14:26:48;5.75;;;3.13;;
19209;SDS011;9738;51.654;14.238;2022-08-25T14:29:14;4.28;;;3.22;;
19209;SDS011;9738;51.654;14.238;2022-08-25T14:31:42;3.92;;;3.20;;
19209;SDS011;9738;51.654;14.238;2022-08-25T14:34:12;5.22;;;3.67;;
19209;SDS011;9738;51.654;14.238;2022-08-25T14:36:40;8.02;;;4.00;;
19209;SDS011;9738;51.654;14.238;2022-08-25T14:39:07;5.18;;;3.40;;
19209;SDS011;9738;51.654;14.238;2022-08-25T14:41:35;4.32;;;3.85;;
19209;SDS011;9738;51.654;14.238;2022-08-25T14:44:03;5.43;;;3.35;;
19209;SDS011;9738;51.654;14.238;2022-08-25T14:46:31;5.18;;;3.38;;
19209;SDS011;9738;51.654;14.238;2022-08-25T14:49:03;6.22;;;3.58;;
19209;SDS011;9738;51.654;14.238;2022-08-25T14:51:32;5.68;;;4.00;;
19209;SDS011;9738;51.654;14.238;2022-08-25T14:54:03;10.20;;;4.88;;
19209;SDS011;9738;51.654;14.238;2022-08-25T14:56:34;7.55;;;3.83;;
19209;SDS011;9738;51.654;14.238;2022-08-25T14:59:01;8.88;;;4.00;;
19209;SDS011;9738;51.654;14.238;2022-08-25T15:01:27;5.55;;;4.13;;
19209;SDS011;9738;51.654;14.238;2022-08-25T15:03:56;7.70;;;3.50;;
19209;SDS011;9738;51.654;14.238;2022-08-25T15:06:26;8.95;;;3.95;;
19209;SDS011;9738;51.654;14.238;2022-08-25T15:08:52;7.00;;;3.45;;
19209;SDS011;9738;51.654;14.238;2022-08-25T15:11:37;6.57;;;3.45;;
19209;SDS011;9738;51.654;14.238;2022-08-25T15:14:05;5.47;;;3.47;;
19209;SDS011;9738;51.654;14.238;2022-08-25T15:16:37;8.70;;;3.55;;
19209;SDS011;9738;51.654;14.238;2022-08-25T15:19:07;5.95;;;4.05;;
19209;SDS011;9738;51.654;14.238;2022-08-25T15:21:36;6.07;;;4.07;;
19209;SDS011;9738;51.654;14.238;2022-08-25T15:24:03;6.20;;;3.53;;
19209;SDS011;9738;51.654;14.238;2022-08-25T15:26:31;5.75;;;3.78;;
19209;SDS011;9738;51.654;14.238;2022-08-25T15:29:04;8.70;;;3.28;;
19209;SDS011;9738;51.654;14.238;2022-08-25T15:31:31;11.70;;;4.45;;
19209;SDS011;9738;51.654;14.238;2022-08-25T15:33:56;6.47;;;3.25;;
19209;SDS011;9738;51.654;14.238;2022-08-25T15:36:24;7.13;;;4.00;;
19209;SDS011;9738;51.654;14.238;2022-08-25T15:38:51;5.93;;;3.70;;
19209;SDS011;9738;51.654;14.238;2022-08-25T15:41:18;5.25;;;3.70;;
19209;SDS011;9738;51.654;14.238;2022-08-25T15:43:45;7.78;;;4.50;;
19209;SDS011;9738;51.654;14.238;2022-08-25T15:46:12;6.25;;;4.03;;
19209;SDS011;9738;51.654;14.238;2022-08-25T15:48:44;6.45;;;4.03;;
19209;SDS011;9738;51.654;14.238;2022-08-25T15:51:12;6.47;;;4.28;;
19209;SDS011;9738;51.654;14.238;2022-08-25T15:53:40;9.15;;;3.80;;
19209;SDS011;9738;51.654;14.238;2022-08-25T15:56:05;6.93;;;3.78;;
19209;SDS011;9738;51.654;14.238;2022-08-25T15:58:32;8.30;;;4.00;;
19209;SDS011;9738;51.654;14.238;2022-08-25T16:00:59;8.13;;;3.72;;
19209;SDS011;9738;51.654;14.238;2022-08-25T16:03:26;7.63;;;4.18;;
19209;SDS011;9738;51.654;14.238;2022-08-25T16:05:53;7.18;;;4.30;;
19209;SDS011;9738;51.654;14.238;2022-08-25T16:08:18;8.23;;;4.40;;
19209;SDS011;9738;51.654;14.238;2022-08-25T16:10:44;7.72;;;4.22;;
19209;SDS011;9738;51.654;14.238;2022-08-25T16:13:11;8.70;;;4.95;;
19209;SDS011;9738;51.654;14.238;2022-08-25T16:15:38;7.47;;;4.28;;
19209;SDS011;9738;51.654;14.238;2022-08-25T16:18:05;8.73;;;4.25;;
19209;SDS011;9738;51.654;14.238;2022-08-25T16:20:33;7.15;;;4.85;;
19209;SDS011;9738;51.654;14.238;2022-08-25T16:22:59;5.78;;;4.20;;
19209;SDS011;9738;51.654;14.238;2022-08-25T16:25:27;5.28;;;4.18;;
19209;SDS011;9738;51.654;14.238;2022-08-25T16:27:54;5.20;;;4.00;;
19209;SDS011;9738;51.654;14.238;2022-08-25T16:30:20;7.78;;;3.95;;
19209;SDS011;9738;51.654;14.238;2022-08-25T16:32:46;5.50;;;3.72;;
19209;SDS011;9738;51.654;14.238;2022-08-25T16:35:13;9.05;;;4.00;;
19209;SDS011;9738;51.654;14.238;2022-08-25T16:37:38;8.75;;;3.28;;
19209;SDS011;9738;51.654;14.238;2022-08-25T16:40:04;7.50;;;4.00;;
19209;SDS011;9738;51.654;14.238;2022-08-25T16:42:32;6.70;;;3.75;;
19209;SDS011;9738;51.654;14.238;2022-08-25T16:44:58;7.68;;;4.38;;
19209;SDS011;9738;51.654;14.238;2022-08-25T16:47:24;7.30;;;4.03;;